Time;durP1;ratioP1;P1;durP2;ratioP2;P2;SDS_P1;SDS_P2;PMS_P1;PMS_P2;Temp;Humidity;BMP_temperature;BMP_pressure;BME280_temperature;BME280_humidity;BME280_pressure;Samples;Min_cycle;Max_cycle;Signal;HPM_P1;HPM_P2
2022/11/26 00:02:24;;;;;;;16.30;5.50;;;7.80;99.90;;;;;;5053933;28;20021;-76
2022/11/26 00:04:51;;;;;;;16.75;4.65;;;7.80;99.90;;;;;;5054722;28;20047;-76
2022/11/26 00:07:21;;;;;;;16.67;5.25;;;7.80;99.90;;;;;;5054548;28;20111;-76
2022/11/26 00:09:49;;;;;;;17.02;5.25;;;7.90;99.90;;;;;;5055656;28;20049;-76
2022/11/26 00:12:17;;;;;;;15.43;5.65;;;7.90;99.90;;;;;;5054607;28;20048;-76
2022/11/26 00:14:43;;;;;;;15.20;4.97;;;7.90;99.90;;;;;;5055509;28;20029;-76
2022/11/26 00:17:12;;;;;;;11.35;5.05;;;7.90;99.90;;;;;;5053560;28;20029;-76
2022/11/26 00:19:38;;;;;;;12.25;4.72;;;7.90;99.90;;;;;;5054494;28;20036;-77
2022/11/26 00:22:04;;;;;;;19.30;5.43;;;7.90;99.90;;;;;;5055081;28;20021;-76
2022/11/26 00:24:30;;;;;;;14.15;4.53;;;7.90;99.90;;;;;;5053721;28;20135;-76
2022/11/26 00:26:57;;;;;;;13.70;4.72;;;8.00;99.90;;;;;;5054145;28;20549;-76
2022/11/26 00:29:23;;;;;;;11.82;4.82;;;7.90;99.90;;;;;;5053878;28;20342;-76
2022/11/26 00:31:48;;;;;;;11.90;5.05;;;7.90;99.90;;;;;;5054330;28;20120;-76
2022/11/26 00:34:14;;;;;;;16.00;4.88;;;7.90;99.90;;;;;;5053770;28;20024;-76
2022/11/26 00:36:43;;;;;;;13.25;4.70;;;7.90;99.90;;;;;;5055652;28;20150;-77
2022/11/26 00:39:21;;;;;;;9.70;4.57;;;7.90;99.90;;;;;;5054024;28;20018;-76
2022/11/26 00:41:51;;;;;;;12.15;4.20;;;7.90;99.90;;;;;;5053546;28;20033;-76
2022/11/26 00:44:18;;;;;;;12.45;4.50;;;7.90;99.90;;;;;;5054296;28;20033;-76
2022/11/26 00:46:44;;;;;;;10.55;4.15;;;7.90;99.90;;;;;;5054797;28;20097;-76
2022/11/26 00:49:10;;;;;;;12.70;4.78;;;7.80;99.90;;;;;;5053022;28;20116;-76
2022/11/26 00:51:35;;;;;;;11.98;4.57;;;7.80;99.90;;;;;;5053636;28;20182;-77
2022/11/26 00:54:02;;;;;;;11.80;4.43;;;7.80;99.90;;;;;;5054830;28;20024;-76
2022/11/26 00:56:29;;;;;;;11.93;4.55;;;7.80;99.90;;;;;;5052871;28;20106;-76
2022/11/26 00:58:54;;;;;;;11.45;4.50;;;7.80;99.90;;;;;;5055080;28;20028;-77
2022/11/26 01:01:22;;;;;;;8.75;4.28;;;7.90;99.90;;;;;;5053819;28;20025;-76
2022/11/26 01:03:48;;;;;;;15.13;5.38;;;7.80;99.90;;;;;;5054601;28;20103;-76
2022/11/26 01:06:19;;;;;;;12.80;4.20;;;7.80;99.90;;;;;;5052301;28;20539;-76
2022/11/26 01:08:45;;;;;;;9.57;4.63;;;7.80;99.90;;;;;;5052803;28;20382;-76
2022/11/26 01:11:15;;;;;;;12.13;4.57;;;7.90;99.90;;;;;;5052202;28;20071;-75
2022/11/26 01:13:42;;;;;;;11.75;4.60;;;7.80;99.90;;;;;;5054652;28;20481;-76
2022/11/26 01:16:19;;;;;;;12.35;4.50;;;7.80;99.90;;;;;;5052714;28;20037;-75
2022/11/26 01:18:45;;;;;;;12.98;4.95;;;7.90;99.90;;;;;;5054103;28;20094;-75
2022/11/26 01:21:11;;;;;;;17.30;4.53;;;7.80;99.90;;;;;;5053393;28;20129;-75
2022/11/26 01:23:38;;;;;;;18.35;5.05;;;7.90;99.90;;;;;;5053222;28;20029;-75
2022/11/26 01:26:04;;;;;;;12.65;4.05;;;7.90;99.90;;;;;;5052761;28;20465;-75
2022/11/26 01:28:30;;;;;;;10.38;3.90;;;7.90;99.90;;;;;;5051626;28;20029;-75
2022/11/26 01:30:56;;;;;;;10.30;4.43;;;7.90;99.90;;;;;;5053690;28;20025;-76
2022/11/26 01:33:21;;;;;;;15.60;4.80;;;7.90;99.90;;;;;;5052967;28;20478;-75
2022/11/26 01:35:47;;;;;;;14.82;4.50;;;7.90;99.90;;;;;;5053932;28;20021;-75
2022/11/26 01:38:14;;;;;;;13.73;4.45;;;7.80;99.90;;;;;;5052976;28;20028;-74
2022/11/26 01:41:17;;;;;;;14.15;4.82;;;7.90;99.90;;;;;;5054049;28;20597;-75
2022/11/26 01:43:43;;;;;;;9.13;3.85;;;7.90;99.90;;;;;;5052672;28;20060;-75
2022/11/26 01:46:16;;;;;;;11.77;4.30;;;7.90;99.90;;;;;;5053101;28;20063;-75
2022/11/26 01:48:43;;;;;;;13.43;4.13;;;7.90;99.90;;;;;;5052910;28;20032;-75
2022/11/26 01:51:10;;;;;;;15.65;4.47;;;7.90;99.90;;;;;;5053494;28;20484;-75
2022/11/26 01:53:40;;;;;;;10.90;4.45;;;7.90;99.90;;;;;;5053553;28;20036;-77
2022/11/26 01:56:31;;;;;;;10.60;4.43;;;7.90;99.90;;;;;;5052132;28;20029;-77
2022/11/26 01:59:11;;;;;;;9.48;4.35;;;7.90;99.90;;;;;;5053107;28;20028;-77
2022/11/26 02:01:37;;;;;;;12.55;4.20;;;7.90;99.90;;;;;;5053355;28;20060;-77
2022/11/26 02:04:26;;;;;;;12.20;4.55;;;7.90;99.90;;;;;;5052679;28;20490;-77
2022/11/26 02:06:54;;;;;;;14.15;4.45;;;7.90;99.90;;;;;;5052801;28;20390;-78
2022/11/26 02:09:20;;;;;;;17.40;4.60;;;7.90;99.90;;;;;;5060991;28;20016;-78
2022/11/26 02:11:46;;;;;;;15.38;4.30;;;7.90;99.90;;;;;;5071460;28;20063;-78
2022/11/26 02:14:19;;;;;;;11.50;4.38;;;7.90;99.90;;;;;;5071473;28;20393;-75
2022/11/26 02:17:03;;;;;;;13.25;3.90;;;7.90;99.90;;;;;;5040112;28;20028;-77
2022/11/26 02:19:41;;;;;;;12.75;4.35;;;7.90;99.90;;;;;;5049999;28;20895;-77
2022/11/26 02:22:33;;;;;;;9.02;3.75;;;7.90;99.90;;;;;;5052004;28;20033;-77
2022/11/26 02:25:06;;;;;;;;;;;7.90;99.90;;;;;;5042692;28;20025;-77
2022/11/26 02:27:34;;;;;;;;;;;8.00;99.90;;;;;;5078313;28;19970;-77
2022/11/26 02:30:11;;;;;;;12.30;4.03;;;8.00;99.90;;;;;;5065448;28;19912;-78
2022/11/26 02:32:47;;;;;;;13.52;3.85;;;8.00;99.90;;;;;;5055022;28;20061;-78
2022/11/26 02:35:42;;;;;;;11.95;4.22;;;7.90;99.90;;;;;;5069878;28;20029;-76
2022/11/26 02:38:12;;;;;;;11.80;3.60;;;7.90;99.90;;;;;;5050901;28;20025;-77
2022/11/26 02:40:38;;;;;;;13.73;4.10;;;7.90;99.90;;;;;;5051895;28;20021;-78
2022/11/26 02:43:03;;;;;;;10.20;4.10;;;7.90;99.90;;;;;;5058229;28;20393;-78
2022/11/26 02:45:36;;;;;;;13.60;4.00;;;7.90;99.90;;;;;;5062243;28;20116;-79
2022/11/26 02:48:05;;;;;;;12.95;3.95;;;8.00;99.90;;;;;;5052890;28;20064;-78
2022/11/26 02:50:39;;;;;;;14.18;4.45;;;8.00;99.90;;;;;;5053437;28;20025;-79
2022/11/26 02:53:05;;;;;;;11.43;3.65;;;8.00;99.90;;;;;;5066456;28;20095;-79
2022/11/26 02:55:36;;;;;;;11.00;3.92;;;8.00;99.90;;;;;;5050068;28;20086;-79
2022/11/26 02:58:02;;;;;;;11.82;4.57;;;7.90;99.90;;;;;;5060486;28;20031;-79
2022/11/26 03:00:28;;;;;;;13.70;4.13;;;7.90;99.90;;;;;;5053383;28;20021;-78
2022/11/26 03:03:07;;;;;;;13.52;4.05;;;7.90;99.90;;;;;;5052016;28;20116;-80
2022/11/26 03:05:36;;;;;;;13.77;3.88;;;7.90;99.90;;;;;;5051374;28;20033;-79
2022/11/26 03:08:03;;;;;;;14.57;3.83;;;7.90;99.90;;;;;;5052258;28;20029;-79
2022/11/26 03:10:30;;;;;;;13.30;3.90;;;7.90;99.90;;;;;;5051239;28;20029;-80
2022/11/26 03:12:56;;;;;;;11.30;3.85;;;7.90;99.90;;;;;;5053384;28;20092;-79
2022/11/26 03:15:22;;;;;;;11.27;3.90;;;7.90;99.90;;;;;;5052374;28;20064;-79
2022/11/26 03:17:47;;;;;;;15.93;4.22;;;7.90;99.90;;;;;;5051781;28;20029;-79
2022/11/26 03:20:14;;;;;;;10.43;3.63;;;7.90;99.90;;;;;;5051489;28;20074;-75
2022/11/26 03:22:39;;;;;;;15.60;3.88;;;7.90;99.90;;;;;;5052775;28;20032;-79
2022/11/26 03:25:06;;;;;;;9.05;3.70;;;7.80;99.90;;;;;;5051757;28;20021;-79
2022/11/26 03:27:31;;;;;;;9.23;3.30;;;7.80;99.90;;;;;;5051117;28;20163;-78
2022/11/26 03:29:57;;;;;;;11.68;3.70;;;7.80;99.90;;;;;;5052773;28;20096;-79
2022/11/26 03:32:23;;;;;;;12.98;4.07;;;7.80;99.90;;;;;;5056087;28;20104;-78
2022/11/26 03:34:48;;;;;;;12.02;3.67;;;7.70;99.90;;;;;;5058219;28;20060;-79
2022/11/26 03:37:14;;;;;;;15.05;4.35;;;7.70;99.90;;;;;;5058021;28;20036;-77
2022/11/26 03:39:40;;;;;;;16.65;4.13;;;7.70;99.90;;;;;;5058854;28;20036;-78
2022/11/26 03:42:05;;;;;;;13.27;3.92;;;7.70;99.90;;;;;;5057998;28;20025;-77
2022/11/26 03:44:31;;;;;;;13.68;4.07;;;7.70;99.90;;;;;;5058530;28;20025;-77
2022/11/26 03:46:57;;;;;;;12.18;3.67;;;7.70;99.90;;;;;;5058078;28;20041;-78
2022/11/26 03:49:22;;;;;;;10.80;3.65;;;7.70;99.90;;;;;;5057295;28;20032;-77
2022/11/26 03:51:48;;;;;;;7.78;3.65;;;7.70;99.90;;;;;;5059227;28;20028;-77
2022/11/26 03:54:14;;;;;;;9.05;3.67;;;7.70;99.90;;;;;;5058005;28;20474;-77
2022/11/26 03:56:39;;;;;;;11.38;3.92;;;7.60;99.90;;;;;;5057143;28;20079;-77
2022/11/26 03:59:05;;;;;;;16.48;4.57;;;7.60;99.90;;;;;;5058801;28;20025;-78
2022/11/26 04:01:31;;;;;;;13.18;3.58;;;7.60;99.90;;;;;;5057345;28;20025;-78
2022/11/26 04:03:56;;;;;;;11.45;4.25;;;7.60;99.90;;;;;;5058933;28;20029;-79
2022/11/26 04:06:22;;;;;;;10.45;4.03;;;7.60;99.90;;;;;;5058262;28;20029;-79
2022/11/26 04:08:47;;;;;;;15.13;4.25;;;7.60;99.90;;;;;;5057964;28;20025;-79
2022/11/26 04:11:13;;;;;;;14.88;3.85;;;7.50;99.90;;;;;;5057976;28;20052;-79
2022/11/26 04:13:39;;;;;;;15.68;5.05;;;7.50;99.90;;;;;;5058519;28;20505;-78
2022/11/26 04:16:05;;;;;;;14.20;4.47;;;7.50;99.90;;;;;;5058955;28;20040;-78
2022/11/26 04:18:31;;;;;;;12.38;3.97;;;7.40;99.90;;;;;;5056883;28;20021;-78
2022/11/26 04:20:58;;;;;;;9.32;4.22;;;7.40;99.90;;;;;;5058581;28;20123;-78
2022/11/26 04:23:24;;;;;;;13.60;3.95;;;7.40;99.90;;;;;;5057200;28;20055;-78
2022/11/26 04:25:49;;;;;;;14.52;4.05;;;7.40;99.90;;;;;;5057814;28;20025;-78
2022/11/26 04:28:15;;;;;;;14.50;3.90;;;7.40;99.90;;;;;;5058832;28;20075;-78
2022/11/26 04:30:41;;;;;;;12.90;3.90;;;7.30;99.90;;;;;;5056929;28;20033;-78
2022/11/26 04:33:07;;;;;;;13.52;3.72;;;7.30;99.90;;;;;;5058827;28;20052;-79
2022/11/26 04:35:32;;;;;;;20.52;4.47;;;7.30;99.90;;;;;;5057526;28;20071;-79
2022/11/26 04:37:58;;;;;;;11.18;3.70;;;7.30;99.90;;;;;;5057739;28;20519;-79
2022/11/26 04:40:23;;;;;;;14.85;4.30;;;7.30;99.90;;;;;;5057943;28;20032;-79
2022/11/26 04:42:49;;;;;;;17.35;4.53;;;7.30;99.90;;;;;;5040115;28;20029;-79
2022/11/26 04:45:15;;;;;;;14.20;4.05;;;7.30;99.90;;;;;;5053839;28;20025;-79
2022/11/26 04:47:40;;;;;;;13.90;4.43;;;7.20;99.90;;;;;;5053942;28;20446;-79
2022/11/26 04:50:06;;;;;;;15.32;4.00;;;7.20;99.90;;;;;;5056007;28;20382;-79
2022/11/26 04:52:32;;;;;;;14.80;4.05;;;7.20;99.90;;;;;;5055014;28;20111;-79
2022/11/26 04:54:57;;;;;;;15.65;3.97;;;7.20;99.90;;;;;;5054249;28;20500;-78
2022/11/26 04:57:23;;;;;;;14.10;4.40;;;7.20;99.90;;;;;;5054776;28;20031;-77
2022/11/26 04:59:49;;;;;;;12.80;4.28;;;7.20;99.90;;;;;;5055389;28;20025;-78
2022/11/26 05:02:14;;;;;;;14.38;5.07;;;7.20;99.90;;;;;;5061586;28;20021;-79
2022/11/26 05:04:40;;;;;;;15.02;4.25;;;7.20;99.90;;;;;;5054944;28;20025;-79
2022/11/26 05:07:06;;;;;;;14.07;4.37;;;7.20;99.90;;;;;;5055349;28;20171;-78
2022/11/26 05:09:31;;;;;;;11.70;4.18;;;7.20;99.90;;;;;;5053532;28;20029;-79
2022/11/26 05:11:57;;;;;;;15.17;4.07;;;7.10;99.90;;;;;;5053755;28;20490;-78
2022/11/26 05:14:22;;;;;;;13.45;3.97;;;7.10;99.90;;;;;;5055025;28;20528;-77
2022/11/26 05:16:48;;;;;;;15.15;4.47;;;7.10;99.90;;;;;;5054036;28;20039;-79
2022/11/26 05:19:13;;;;;;;11.67;4.53;;;7.10;99.90;;;;;;5054219;28;20052;-78
2022/11/26 05:21:40;;;;;;;13.27;4.40;;;7.10;99.90;;;;;;5053213;28;20154;-79
2022/11/26 05:24:06;;;;;;;12.73;4.43;;;7.20;99.90;;;;;;5055028;28;20027;-79
2022/11/26 05:26:31;;;;;;;12.50;4.90;;;7.20;99.90;;;;;;5053026;28;20401;-78
2022/11/26 05:28:57;;;;;;;11.48;4.80;;;7.20;99.90;;;;;;5053823;28;20164;-79
2022/11/26 05:31:23;;;;;;;12.70;4.20;;;7.30;99.90;;;;;;5054531;28;20075;-76
2022/11/26 05:33:48;;;;;;;8.52;3.88;;;7.30;99.90;;;;;;5054773;28;20028;-79
2022/11/26 05:36:14;;;;;;;12.40;4.60;;;7.30;99.90;;;;;;5054817;28;20099;-79
2022/11/26 05:38:39;;;;;;;13.25;4.45;;;7.30;99.90;;;;;;5054157;28;20036;-79
2022/11/26 05:41:05;;;;;;;12.38;4.07;;;7.30;99.90;;;;;;5053773;28;20029;-78
2022/11/26 05:43:31;;;;;;;11.40;4.13;;;7.30;99.90;;;;;;5053888;28;20116;-78
2022/11/26 05:46:01;;;;;;;6.88;4.03;;;7.30;99.90;;;;;;5053548;28;20107;-78
2022/11/26 05:48:27;;;;;;;12.90;3.85;;;7.30;99.90;;;;;;5053795;28;20035;-78
2022/11/26 05:50:57;;;;;;;16.40;4.80;;;7.30;99.90;;;;;;5053317;28;20120;-79
2022/11/26 05:53:23;;;;;;;12.17;4.57;;;7.30;99.90;;;;;;5052948;28;20031;-77
2022/11/26 05:55:49;;;;;;;13.85;4.32;;;7.30;99.90;;;;;;5052909;28;20478;-80
2022/11/26 05:58:14;;;;;;;14.57;4.53;;;7.30;99.90;;;;;;5053709;28;20024;-79
2022/11/26 06:00:40;;;;;;;17.05;4.63;;;7.30;99.90;;;;;;5054230;28;20029;-79
2022/11/26 06:03:05;;;;;;;12.00;4.53;;;7.40;99.90;;;;;;5054646;28;20040;-79
2022/11/26 06:05:31;;;;;;;14.23;4.15;;;7.40;99.90;;;;;;5052502;28;20082;-79
2022/11/26 06:07:57;;;;;;;10.50;4.05;;;7.40;99.90;;;;;;5054631;28;20033;-79
2022/11/26 06:10:22;;;;;;;15.02;5.47;;;7.40;99.90;;;;;;5053329;28;20037;-77
2022/11/26 06:12:48;;;;;;;12.80;3.88;;;7.40;99.90;;;;;;5052744;28;20131;-79
2022/11/26 06:15:13;;;;;;;14.10;5.00;;;7.50;99.90;;;;;;5054548;28;20379;-80
2022/11/26 06:17:39;;;;;;;17.10;4.30;;;7.50;99.90;;;;;;5052528;28;20029;-80
2022/11/26 06:20:05;;;;;;;17.70;4.20;;;7.50;99.90;;;;;;5054389;28;20052;-80
2022/11/26 06:22:39;;;;;;;16.63;4.38;;;7.50;99.90;;;;;;5052777;28;20124;-79
2022/11/26 06:25:07;;;;;;;18.38;4.63;;;7.50;99.90;;;;;;5053414;28;20025;-79
2022/11/26 06:27:33;;;;;;;16.45;5.00;;;7.60;99.90;;;;;;5053253;28;20115;-79
2022/11/26 06:29:59;;;;;;;13.75;4.45;;;7.60;99.90;;;;;;5054092;28;20108;-79
2022/11/26 06:32:24;;;;;;;12.02;5.03;;;7.60;99.90;;;;;;5052809;28;20025;-77
2022/11/26 06:34:50;;;;;;;15.35;4.70;;;7.60;99.90;;;;;;5052493;28;20435;-80
2022/11/26 06:37:15;;;;;;;16.95;4.63;;;7.60;99.90;;;;;;5053811;28;20056;-79
2022/11/26 06:39:41;;;;;;;15.70;5.23;;;7.60;99.90;;;;;;5051954;28;20071;-79
2022/11/26 06:42:07;;;;;;;16.83;4.45;;;7.70;99.90;;;;;;5052523;28;20036;-79
2022/11/26 06:44:36;;;;;;;14.63;4.82;;;7.70;99.90;;;;;;5052049;28;20029;-79
2022/11/26 06:47:02;;;;;;;14.43;4.70;;;7.70;99.90;;;;;;5052979;28;20029;-79
2022/11/26 06:49:27;;;;;;;12.77;4.60;;;7.60;99.90;;;;;;5053423;28;20029;-77
2022/11/26 06:51:53;;;;;;;16.03;4.73;;;7.60;99.90;;;;;;5052482;28;20032;-79
2022/11/26 06:54:19;;;;;;;16.80;4.88;;;7.60;99.90;;;;;;5052761;28;20052;-79
2022/11/26 06:56:45;;;;;;;13.55;5.15;;;7.60;99.90;;;;;;5053163;28;20036;-79
2022/11/26 06:59:10;;;;;;;12.45;4.88;;;7.70;99.90;;;;;;5053665;28;20044;-80
2022/11/26 07:01:36;;;;;;;21.48;6.03;;;7.60;99.90;;;;;;5053034;28;20025;-79
2022/11/26 07:04:02;;;;;;;13.38;4.90;;;7.60;99.90;;;;;;5053633;28;20108;-79
2022/11/26 07:06:29;;;;;;;15.77;4.97;;;7.60;99.90;;;;;;5051419;28;20458;-77
2022/11/26 07:08:57;;;;;;;15.77;5.32;;;7.50;99.90;;;;;;5052621;28;20065;-80
2022/11/26 07:11:23;;;;;;;12.18;4.80;;;7.50;99.90;;;;;;5047927;28;20053;-76
2022/11/26 07:13:49;;;;;;;9.45;4.50;;;7.40;99.90;;;;;;5051353;28;20031;-80
2022/11/26 07:16:15;;;;;;;14.77;5.22;;;7.40;99.90;;;;;;5053495;28;20096;-80
2022/11/26 07:18:41;;;;;;;14.15;5.00;;;7.30;99.90;;;;;;5049659;28;20055;-80
2022/11/26 07:21:10;;;;;;;18.60;5.33;;;7.30;99.90;;;;;;5051519;28;20028;-80
2022/11/26 07:23:35;;;;;;;19.52;6.53;;;7.30;99.90;;;;;;5047921;28;20079;-80
2022/11/26 07:26:02;;;;;;;15.10;5.85;;;7.20;99.90;;;;;;5052347;28;20036;-80
2022/11/26 07:28:28;;;;;;;18.20;6.28;;;7.20;99.90;;;;;;5052536;28;20063;-76
2022/11/26 07:30:58;;;;;;;15.40;6.82;;;7.20;99.90;;;;;;5065519;28;20039;-80
2022/11/26 07:33:23;;;;;;;16.73;6.43;;;7.10;99.90;;;;;;5064431;28;20462;-79
2022/11/26 07:35:49;;;;;;;19.95;6.78;;;7.10;99.90;;;;;;5052004;28;20078;-79
2022/11/26 07:38:14;;;;;;;13.25;6.03;;;7.10;99.90;;;;;;5051734;28;20360;-79
2022/11/26 07:40:40;;;;;;;22.88;5.97;;;7.10;99.90;;;;;;5067312;28;20029;-80
2022/11/26 07:43:05;;;;;;;19.23;6.13;;;7.00;99.90;;;;;;5056108;28;20059;-79
2022/11/26 07:45:36;;;;;;;19.02;5.97;;;7.00;99.90;;;;;;5062520;28;20489;-75
2022/11/26 07:48:03;;;;;;;13.27;5.68;;;7.00;99.90;;;;;;5051703;28;20075;-79
2022/11/26 07:50:29;;;;;;;13.63;5.80;;;7.00;99.90;;;;;;5052415;28;20027;-76
2022/11/26 07:52:55;;;;;;;12.93;5.68;;;6.90;99.90;;;;;;5068346;28;20104;-79
2022/11/26 07:55:20;;;;;;;20.33;5.55;;;7.00;99.90;;;;;;5058315;28;20021;-79
2022/11/26 07:57:46;;;;;;;23.45;5.90;;;6.90;99.90;;;;;;5059807;28;20553;-79
2022/11/26 08:00:12;;;;;;;18.73;6.83;;;7.00;99.90;;;;;;5051492;28;20048;-79
2022/11/26 08:02:38;;;;;;;20.45;6.32;;;6.90;99.90;;;;;;5067348;28;20038;-79
2022/11/26 08:05:04;;;;;;;18.13;7.90;;;6.90;99.90;;;;;;5051502;28;20464;-79
2022/11/26 08:07:29;;;;;;;19.50;7.03;;;6.90;99.90;;;;;;5052263;28;20021;-77
2022/11/26 08:09:55;;;;;;;21.42;7.05;;;6.90;99.90;;;;;;5062848;28;20367;-80
2022/11/26 08:12:21;;;;;;;18.87;6.67;;;6.80;99.90;;;;;;5049611;28;20421;-80
2022/11/26 08:14:46;;;;;;;18.37;7.80;;;6.80;99.90;;;;;;5050638;28;20128;-79
2022/11/26 08:17:12;;;;;;;21.80;7.15;;;6.80;99.90;;;;;;5052444;28;20029;-79
2022/11/26 08:19:37;;;;;;;15.87;6.80;;;6.80;99.90;;;;;;5054381;28;20020;-79
2022/11/26 08:22:03;;;;;;;16.80;6.93;;;6.80;99.90;;;;;;5054976;28;20086;-79
2022/11/26 08:24:30;;;;;;;21.63;7.93;;;6.80;99.90;;;;;;5071107;28;20040;-77
2022/11/26 08:26:58;;;;;;;16.13;7.67;;;6.80;99.90;;;;;;5058393;28;20077;-79
2022/11/26 08:29:24;;;;;;;23.73;8.20;;;6.80;99.90;;;;;;5075952;28;20024;-80
2022/11/26 08:31:50;;;;;;;27.20;8.02;;;6.80;99.90;;;;;;5062763;28;20114;-80
2022/11/26 08:34:16;;;;;;;19.93;7.40;;;6.80;99.90;;;;;;5069812;28;20067;-80
2022/11/26 08:36:43;;;;;;;19.43;7.73;;;6.80;99.90;;;;;;5056549;28;20151;-79
2022/11/26 08:39:16;;;;;;;19.75;7.78;;;6.90;99.90;;;;;;5054869;28;20158;-79
2022/11/26 08:41:41;;;;;;;24.90;7.90;;;6.80;99.90;;;;;;5054461;28;20021;-79
2022/11/26 08:44:07;;;;;;;20.73;7.17;;;6.90;99.90;;;;;;5062182;28;20382;-79
2022/11/26 08:46:37;;;;;;;19.87;7.60;;;6.90;99.90;;;;;;5058070;28;20496;-75
2022/11/26 08:49:04;;;;;;;22.98;7.85;;;7.00;99.90;;;;;;5069685;28;20025;-77
2022/11/26 08:51:29;;;;;;;15.63;7.37;;;7.10;99.90;;;;;;5063246;28;20024;-76
2022/11/26 08:53:55;;;;;;;15.18;7.38;;;7.20;99.90;;;;;;5062002;28;20378;-77
2022/11/26 08:56:21;;;;;;;21.83;6.63;;;7.30;99.90;;;;;;5065813;28;20052;-78
2022/11/26 08:58:47;;;;;;;23.73;7.93;;;7.30;99.90;;;;;;5057201;28;20036;-78
2022/11/26 09:01:21;;;;;;;19.35;7.63;;;7.40;99.90;;;;;;5067265;28;20025;-78
2022/11/26 09:03:49;;;;;;;18.38;7.43;;;7.50;99.90;;;;;;5064108;28;20021;-77
2022/11/26 09:06:15;;;;;;;20.23;7.32;;;7.50;99.90;;;;;;5059213;28;20029;-80
2022/11/26 09:09:11;;;;;;;18.70;7.10;;;7.60;99.90;;;;;;5054894;28;20032;-80
2022/11/26 09:11:29;;;;;;;19.23;6.95;;;7.60;99.90;;;;;;5061975;28;20060;-80
2022/11/26 09:13:56;;;;;;;15.88;6.20;;;7.60;99.90;;;;;;5057646;28;20032;-79
2022/11/26 09:16:23;;;;;;;17.48;6.53;;;7.60;99.90;;;;;;5057897;28;20115;-80
2022/11/26 09:18:50;;;;;;;14.70;6.45;;;7.70;99.90;;;;;;5070510;28;20021;-80
2022/11/26 09:21:15;;;;;;;20.20;7.30;;;7.60;99.90;;;;;;5060069;28;20021;-81
2022/11/26 09:23:41;;;;;;;18.05;6.80;;;7.70;99.90;;;;;;5072874;28;20108;-80
2022/11/26 09:26:07;;;;;;;17.55;6.60;;;7.70;99.90;;;;;;5059789;28;20036;-81
2022/11/26 09:28:32;;;;;;;27.17;7.70;;;7.70;99.90;;;;;;5070368;28;20489;-80
2022/11/26 09:30:59;;;;;;;16.08;6.53;;;7.80;99.90;;;;;;5053122;28;20025;-81
2022/11/26 09:33:25;;;;;;;19.50;6.50;;;7.90;99.90;;;;;;5054390;28;20021;-79
2022/11/26 09:35:50;;;;;;;13.40;5.88;;;7.90;99.90;;;;;;5053405;28;20029;-79
2022/11/26 09:38:16;;;;;;;22.73;5.72;;;7.90;99.90;;;;;;5069154;28;20129;-79
2022/11/26 09:41:26;;;;;;;18.35;5.80;;;7.90;99.90;;;;;;5066448;28;20048;-79
2022/11/26 09:44:03;;;;;;;13.98;5.90;;;7.90;99.90;;;;;;5002707;28;20213;-79
2022/11/26 09:46:39;;;;;;;21.42;6.00;;;7.90;99.90;;;;;;5062685;28;20040;-79
2022/11/26 09:49:04;;;;;;;21.30;7.78;;;8.00;99.90;;;;;;5052955;28;20120;-78
2022/11/26 09:51:33;;;;;;;17.30;6.15;;;8.00;99.90;;;;;;5050074;28;20064;-77
2022/11/26 09:54:03;;;;;;;18.48;6.60;;;8.10;99.90;;;;;;5053595;28;20459;-79
2022/11/26 09:56:31;;;;;;;11.02;5.13;;;8.10;99.90;;;;;;5052636;28;20166;-78
2022/11/26 09:59:02;;;;;;;17.00;5.50;;;8.10;99.90;;;;;;5055751;28;20028;-78
2022/11/26 10:01:31;;;;;;;14.20;5.25;;;8.10;99.90;;;;;;5053866;28;20048;-79
2022/11/26 10:03:57;;;;;;;14.25;5.47;;;8.20;99.90;;;;;;5052084;28;20037;-79
2022/11/26 10:06:36;;;;;;;14.85;5.03;;;8.30;99.90;;;;;;5052823;28;20040;-76
2022/11/26 10:09:23;;;;;;;12.07;4.68;;;8.30;99.90;;;;;;5042056;28;20021;-79
2022/11/26 10:12:13;;;;;;;14.70;4.70;;;8.30;99.90;;;;;;5061013;28;20123;-79
2022/11/26 10:14:57;;;;;;;15.10;4.20;;;8.30;99.90;;;;;;5068838;28;20028;-79
2022/11/26 10:17:35;;;;;;;16.10;4.28;;;8.30;99.90;;;;;;5059689;28;20028;-76
2022/11/26 10:20:19;;;;;;;12.25;4.78;;;8.40;99.90;;;;;;5059364;28;20056;-75
2022/11/26 10:22:50;;;;;;;9.02;4.07;;;8.30;99.90;;;;;;5054975;28;20535;-78
2022/11/26 10:25:22;;;;;;;12.45;3.60;;;8.30;99.90;;;;;;5073555;28;20035;-79
2022/11/26 10:27:49;;;;;;;13.68;3.55;;;8.50;99.90;;;;;;5060711;28;20039;-79
2022/11/26 10:30:21;;;;;;;12.63;3.72;;;8.60;99.90;;;;;;5067139;28;20032;-79
2022/11/26 10:32:48;;;;;;;10.98;3.17;;;8.60;99.90;;;;;;5056108;28;20490;-79
2022/11/26 10:35:16;;;;;;;17.20;3.88;;;8.60;99.90;;;;;;5066825;28;20100;-76
2022/11/26 10:37:42;;;;;;;16.00;4.20;;;8.50;99.90;;;;;;5062910;28;20028;-79
2022/11/26 10:40:30;;;;;;;14.57;3.40;;;8.50;99.90;;;;;;5058503;28;20113;-79
2022/11/26 10:43:12;;;;;;;17.17;3.63;;;8.50;99.90;;;;;;5051745;28;20496;-81
2022/11/26 10:45:43;;;;;;;13.85;4.45;;;8.50;99.90;;;;;;5062982;28;20082;-82
2022/11/26 10:48:27;;;;;;;12.38;3.10;;;8.50;99.90;;;;;;5067147;28;20036;-80
2022/11/26 10:51:24;;;;;;;9.55;3.00;;;8.50;99.90;;;;;;5068714;28;20065;-80
2022/11/26 10:53:51;;;;;;;7.10;3.90;;;8.60;99.90;;;;;;5051848;28;20041;-80
2022/11/26 10:56:45;;;;;;;11.23;4.03;;;8.70;99.90;;;;;;5067985;28;20033;-78
2022/11/26 10:59:39;;;;;;;11.20;3.28;;;8.80;99.90;;;;;;5043634;28;20078;-79
2022/11/26 11:02:29;;;;;;;6.90;3.08;;;8.90;99.90;;;;;;5058318;28;20044;-80
2022/11/26 11:04:57;;;;;;;10.18;3.08;;;9.00;99.90;;;;;;5038945;28;20553;-80
2022/11/26 11:07:42;;;;;;;8.88;2.75;;;9.10;99.90;;;;;;5064010;28;20467;-80
2022/11/26 11:10:08;;;;;;;9.05;2.88;;;9.10;99.90;;;;;;5051723;28;20059;-80
2022/11/26 11:12:35;;;;;;;9.43;2.90;;;9.30;99.90;;;;;;5056600;28;20132;-78
2022/11/26 11:15:21;;;;;;;8.80;2.53;;;9.40;99.90;;;;;;5064978;28;20115;-81
2022/11/26 11:18:34;;;;;;;8.98;2.42;;;9.30;99.90;;;;;;5050365;28;20364;-78
2022/11/26 11:21:02;;;;;;;;;;;9.40;99.90;;;;;;5038873;28;20036;-77
2022/11/26 11:23:34;;;;;;;6.63;2.38;;;9.50;99.90;;;;;;5055357;28;20254;-77
2022/11/26 11:26:06;;;;;;;13.30;2.60;;;9.70;99.90;;;;;;5047788;28;20040;-77
2022/11/26 11:28:35;;;;;;;10.68;2.25;;;9.80;99.90;;;;;;5064788;28;20034;-78
2022/11/26 11:31:12;;;;;;;7.13;2.35;;;9.90;99.90;;;;;;5055294;28;20078;-77
2022/11/26 11:33:39;;;;;;;8.60;2.47;;;9.90;99.90;;;;;;5049905;28;20116;-77
2022/11/26 11:36:12;;;;;;;9.13;2.15;;;9.90;99.90;;;;;;5051046;28;20535;-77
2022/11/26 11:38:51;;;;;;;7.95;2.22;;;9.90;99.90;;;;;;5052219;28;20060;-77
2022/11/26 11:41:23;;;;;;;8.57;2.95;;;9.90;99.90;;;;;;5050681;28;20032;-75
2022/11/26 11:43:51;;;;;;;9.45;1.88;;;10.00;99.90;;;;;;5052041;28;20462;-76
2022/11/26 11:46:48;;;;;;;10.80;1.90;;;10.00;99.90;;;;;;5056174;28;20027;-75
2022/11/26 11:49:36;;;;;;;6.60;2.10;;;10.00;99.90;;;;;;5044270;28;20099;-75
2022/11/26 11:52:25;;;;;;;7.30;2.40;;;10.10;99.90;;;;;;5071031;28;20021;-76
2022/11/26 11:55:12;;;;;;;5.85;2.25;;;10.10;99.90;;;;;;5058343;28;20028;-75
2022/11/26 11:57:52;;;;;;;10.70;2.10;;;10.20;99.90;;;;;;5062989;28;20477;-77
2022/11/26 12:00:30;;;;;;;6.38;1.98;;;10.20;99.90;;;;;;5069189;28;20025;-79
2022/11/26 12:03:24;;;;;;;9.27;2.50;;;10.20;99.90;;;;;;5041538;28;20032;-76
2022/11/26 12:06:24;;;;;;;10.07;2.22;;;10.20;99.90;;;;;;5062962;28;20029;-76
2022/11/26 12:09:22;;;;;;;7.80;2.47;;;10.20;99.90;;;;;;5070694;28;20221;-74
2022/11/26 12:11:56;;;;;;;10.98;2.95;;;10.30;99.90;;;;;;5052014;28;20453;-78
2022/11/26 12:14:31;;;;;;;8.10;2.78;;;10.60;99.90;;;;;;5066728;28;20028;-77
2022/11/26 12:17:03;;;;;;;6.43;2.60;;;10.60;99.90;;;;;;5041684;28;20028;-76
2022/11/26 12:19:46;;;;;;;6.65;2.45;;;10.40;99.90;;;;;;5066588;28;20021;-77
2022/11/26 12:22:26;;;;;;;8.85;3.03;;;10.20;99.90;;;;;;5063665;28;20024;-77
2022/11/26 12:25:15;;;;;;;7.15;2.63;;;10.00;99.90;;;;;;5057821;28;20024;-78
2022/11/26 12:27:49;;;;;;;9.27;3.10;;;10.00;99.90;;;;;;5055131;28;20053;-77
2022/11/26 12:30:16;;;;;;;11.38;3.05;;;9.90;99.90;;;;;;5057762;28;20028;-78
2022/11/26 12:32:45;;;;;;;9.50;3.15;;;9.80;99.90;;;;;;5070306;28;20032;-78
2022/11/26 12:35:16;;;;;;;11.43;2.33;;;10.00;99.90;;;;;;5059689;28;20116;-79
2022/11/26 12:37:43;;;;;;;7.82;2.20;;;9.90;99.90;;;;;;5064670;28;20064;-78
2022/11/26 12:40:26;;;;;;;9.57;3.42;;;10.00;99.90;;;;;;5067946;28;20059;-77
2022/11/26 12:43:21;;;;;;;7.50;3.05;;;10.20;99.90;;;;;;5044694;28;20033;-75
2022/11/26 12:46:02;;;;;;;7.00;2.20;;;10.30;99.90;;;;;;5049573;28;20501;-75
2022/11/26 12:48:36;;;;;;;6.75;1.92;;;10.50;99.90;;;;;;5056607;28;20045;-77
2022/11/26 12:51:29;;;;;;;7.30;1.90;;;10.40;99.90;;;;;;5073841;28;20074;-76
2022/11/26 12:54:18;;;;;;;3.33;1.70;;;10.40;99.90;;;;;;5066287;28;20389;-76
2022/11/26 12:57:13;;;;;;;9.80;2.03;;;10.50;99.90;;;;;;5048770;28;20029;-74
2022/11/26 12:59:58;;;;;;;7.72;2.13;;;10.60;99.90;;;;;;5056947;28;20024;-75
2022/11/26 13:02:29;;;;;;;7.88;2.58;;;10.80;99.90;;;;;;5051031;28;20028;-75
2022/11/26 13:04:57;;;;;;;7.78;2.20;;;10.90;99.90;;;;;;5048205;28;20025;-76